Timeline UpdatesTrip UpdatesNews PostsPvt PostsTravel TipsAdmin PostsConv PostsFollowed PostsChat RequestsBlog PostsPNR Posts

Disclaimer
Search
 
 
Thu Oct 2, 2014 13:55:39 ISTHomeTrainsΣChainsAtlasPNRForumGalleryNewsFAQTripsMembersLoginFeedback
No Recent News for this Train
Other Trains in the News **new
Latest...
running with se1
Wed Aug 27, 2014 (09:42AM)
⇐ Return Journey: Train# 18238

18237/Chhattisgarh Express

Time-Table HAS CHANGED.
Sep 01 2014 (11:44PM)
Change Departure Station:
Change Arrival Station:
Post a Train Travel TipPost a Train Travel Tip **new
Post a Comment/Question/Picture/VideoPost a Comment/Question/Picture/Video
Inaugural Run
Sat Jan 01, 1977
Pantry/Catering
✓ Pantry Car Avbl
✓ Catering Avbl
Food is of Average Quality
Loco/Rake Reversals
NGP/Nagpur Junction (8);
RSA - Rake Sharing
58209
Rake/Coach Composition
LOCO-SLR-GS-S1-S2-S3-S4-S5-S6-S7-S8-S9-S10-PC-S11-S12-B3-B2-B1-A1-HA1-GS-SLR-SP1
Loco
BSP - NGP --- ET WAP4 NGP - NZM --- AJNI...
Read more...
WAP7 NZM - ASR ---- TKD WDP4 Author: Mahesh Gupta Entry# 295353
News    PNR    Forum    Time-Table    Availability    Fare Chart    Map    Arr/Dep History    Trips    Gallery    ΣChains    X/O    Timeline    
Travel Time: 41h 55m    83 halts    Distance: 2011 km    Avg Speed: 47 km/hr
Type: Mail/Express
Zone: SECR/South East Central
Departs @ 14:15 (Avg 1m late)
Platform# 3
SMTWTFS
Bilaspur Junction/BSP 
Arrives @ 08:10 +2 nights (Avg 33m late)
Platform# 3
SMTWTFS
Amritsar Junction/ASR 

83 halts. 279 intermediate Stations between Bilaspur Junction and Amritsar Junction

Show ALL intermediate Stations  Show Old Time-Table

#CodeStation NameX/OArrivesAvgDepartsAvgHaltPFDay#KmSpeedElevZoneAddress
1BSPBilaspur Junction (8)»  -14:15+1310.052271mSECRBilaspur, Chhattisgarh
2BYLBelha  14:34 14:33+714:35+71 2m--115.580269mSECRCollege Road, Chhattisgarh
3BYTBhatapara (4)X  14:59 14:58+1115:00+111 2m--146.271270mSECRBanjari Road, Chhattisgarh
4HNHathbandhX  15:13+1115:14+121m--161.571283mSECRRaipur, Chhattisgarh
5TLDTilda (3)X  15:24 15:23+1115:25+121 2m--172.251 SECRBanjari Rd, Chhattisgarh
6RRaipur Junction (6)XO  16:10+1016:20+810m--1110.484297mSECRRaipur, Chhattisgarh
7BPHBBhilai Power House (3)  16:41 16:40+116:42+11 2m--1138.419312mSECRBhilai, Chhattisgarh
8DURGDurg Junction (6)X  17:10+017:15+35m11147.487299mSECRPh: 91-788-2322059, Chhattisgarh
9RJNRaj Nandgaon (3)X  17:36+1617:38+162m--1177.886313mSECRRajnandgaon, Chhattisgarh
10DGGDongargarh (2)  18:01 18:00+2318:02+251 2m--1209.467 SECRDongargarh, Chhattisgarh
11SKSSalekasa (2)  18:35 18:34+3018:36+301 2m--1245.180312mSECRRajnandgaon, Chhattisgarh
12AGNAmgaon (2)  18:48 18:47+3118:49+311 2m--1259.847317mSECRGondia, Maharashtra
13GGondia Junction (7)  19:18+2119:23+215m--1282.692316mSECRGondia 441601, Maharashtra
14TROTirora (3)  19:43 19:42+2819:44+281 2m--1311.972282mSECRDist Gondia, Maharashtra
15TMRTumsar Road (5)X  20:02 20:01+2420:03+251 2m--1332.372267mSECRDistt. Bhandara, Maharashtra
16BRDBhandara Road (3)  20:19 20:18+2420:20+241 2m--1350.287266mSECRState Highway 252 Bhandara District, Maharashtra
17KPKamptee (3)  20:54 20:53+2620:55+281 2m--1398.219290mSECRKamptee, Maharashtra
18NGPNagpur Junction (8)X21:40+1222:05+1325m31412.583314mCRNagpur 440001, Maharashtra
19KATLKatol (2)X  22:49+2322:50+241m--1473.479 CRKatol, Maharashtra
20NRKRNarkher Junction (4)  23:09+2623:10+281m--1498.558411mCRNarkher, Maharashtra
21PARPandhurna (2)  23:29+2623:30+291m--1516.848481mCRDistt: Chhindwara, Madhya Pradesh
22MTYMultai (2)X  00:21+2900:22+301m--2557.660762mCRMultai, Madhya Pradesh
23AMLAAmla Junction (5)XO  00:45+3101:20+2435m--2580.553733mCRAmla Distt. Betul, Madhya Pradesh
24BZUBetul (3)X  01:46+2101:47+241m--2603.450644mCRBetul, Madhya Pradesh
25GDYAGhoradongri (3)X  02:30+2802:31+301m--2639.339 CRBetul, Madhya Pradesh
26ETItarsi Junction (7)  04:20+1104:25+175m--2709.760329mWCRItarsi 461111, Madhya Pradesh
27HBDHoshangabad (2)X  04:44 04:43+2104:45+221 2m--2727.850308mWCRHoshangabad, Madhya Pradesh
28ODGObaidulla Ganj  05:31 05:30+3405:32+351 2m22765.554 WCRObaidullaganj Raisen Dist., Madhya Pradesh
29HBJBhopal HabibGanj (5)XO  06:05+3006:06 06:07+351 2m12795.216496mWCRHabibGanj, Madhya Pradesh
30BPLBhopal Junction (6)X  06:30+2806:35+305m22801.471497mWCRBhopal, Madhya Pradesh
31BHSVidisha (3)X  07:20+3107:22+322m12854.987 WCRVidisha, Madhya Pradesh
32BAQGanj Basoda (4)X  07:50 07:49+3907:51+401 2m12894.246 WCRVidisha, Madhya Pradesh
33MABAMandi Bamora (3)XO  08:29 08:28+2708:30+271 2m12922.723413mWCRState Highway 14, Madhya Pradesh
34BINABina Junction (5)XO  09:15+609:20+105m22940.058414mWCRJn Pt - KATNI/GUNA/ BPL/JHS, Madhya Pradesh
35DUADhaura (3)XO  09:57 09:56+909:58+111 2m--2974.658407mNCRDhaura Tanda, Madhya Pradesh
36JLNJakhalaun (3)  10:12 10:10+910:14 10:12+102m--2986.172394mNCRLalitpur(05176-272220), Uttar Pradesh
37LARLalitpur (3)  10:21 10:26+1210:22 10:28+141 2m321002.986373mNCRLalitpur, Uttar Pradesh
38TBTTalbahat (4)  10:50 10:56+1710:52 10:58+182m321042.859314mNCRKhaniyadhana Station Rd, Madhya Pradesh
39BZYBasai (3)X  11:07 11:11+1711:08 11:13+181 2m221055.652287mNCR07522289600(Gate ManMob. - 9452701575), Madhya Pradesh
40BABBabina (3)  11:22 11:27+1711:23 11:29+191 2m221067.749285mNCRBabina, Uttar Pradesh
41JHSJhansi Junction (7)XO  12:10 12:00+1312:18 12:05+208 5m421093.241259mNCRJhansi, Uttar Pradesh
42DAADatia (2)X  12:41 12:42+1612:42 12:44+171 2m121118.249264mNCRDatia, Madhya Pradesh
43SORSonagir (2)X  12:55 12:58+1512:56 13:00+181 2m--21129.881211mNCRDatia, Madhya Pradesh
44DBADabra (3)X  13:13 13:14+2113:14 13:16+231 2m121148.669 NCRDabra(District-Gwalior), Madhya Pradesh
45GWLGwalior Junction (4)X  13:51 13:53+2613:56 13:58+285m221190.977214mNCRGwalior, Madhya Pradesh
46BAOBanmor  14:12 14:13+3614:13 14:15+371 2m--21210.277189mNCRGwalior, Madhya Pradesh
47MRAMorena (3)O  14:34 14:30+3514:35+351 5m221229.570176mNCRMorena, Madhya Pradesh
48DHODholpur Junction (3)X  14:57 14:58+3414:58 15:00+351 2m121256.353177mNCRDholpur, Rajasthan
49AGCAgra Cantt. (6)X  16:00+3516:08+398m221308.930174mNCRAgra, Uttar Pradesh
50RKMRaja Ki Mandi (4)  16:16+4516:17+461m121312.962170mNCRAgra, Uttar Pradesh
51MTJMathura Junction (10)X  17:05+4517:10+455m221362.681179mNCRMathura, Uttar Pradesh
52CHJChata (4)XO  17:33+4917:34+501m221393.847 NCRChhata, Uttar Pradesh
53KSVKosi Kalan (3)X  17:46 17:47+4917:47 17:49+491 2m121404.142189mNCRKosi Kalan, Uttar Pradesh
54PWLPalwal (8)X  18:39 18:50+2618:40 18:52+281 2m--21446.575200mNRPalwal, Haryana
55BVHBallabgarh (5)X  18:59 19:09+3519:00 19:10+361m--21467.744203mNRFaridabad, Haryana
56FDBFaridabad (4)  19:12 19:21+3819:13 19:23+391 2m221475.839206mNRold Faridabad, Haryana
57NZMDelhi Hazrat Nizamuddin (7)  19:45 19:55+4620:15 20:20+4630 25m121496.637209mNRNew Delhi 110013, Delhi NCT
58SBBSahibabad Junction (5)XO  20:53 20:46+4820:54 20:47+491m--21512.631209mNRGhaziabad, Uttar Pradesh
59GZBGhaziabad Junction (6)X  21:08 21:00+4921:10 21:05+472 5m121519.350217mNRGhaziabad, Uttar Pradesh
60MUDMuradnagar (2)XO  21:27 21:26+5621:28+561 2m--21536.961220mNRGhaziabad, Uttar Pradesh
61MDNRModinagar (2)X  21:39 21:38+5721:40+571 2m--21547.158221mNRGhaziabad, Uttar Pradesh
62MTCMeerut City Junction (6)O  22:00+5822:05+565m321566.552229mNRMeerut, Uttar Pradesh
63MUTMeerut Cantt. (2)  22:11 22:10+5922:12+1:001 2m--21570.879230mNRMeerut, Uttar Pradesh
64KATKhatauli (2)  22:38 22:34+5822:39 22:35+591m221599.960239mNRKhatauli, Uttar Pradesh
65MOZMuzaffarnagar (3)  22:59 22:57+5523:00+541 3m221622.172247mNRMuzaffarNagar, Uttar Pradesh
66DBDDeoband (2)  23:21 23:20+5423:22+531 2m221646.131258mNRSaharanpur, Uttar Pradesh
67SRESaharanpur Junction (6)X  00:20 00:28+4600:30 00:45+4510 17m431680.367276mNRSaharanpur, Uttar Pradesh
68JUDYamunanagar-Jagadhri (3)X  00:59 01:12+5301:00 01:14+531 2m331710.543275mNRYamunanagar, Haryana
69JUDWJagadhri Workshop (2)X  01:08 01:21+5401:09 01:23+541 2m231715.580280mNRRailway Workshop Road, Haryana
70RAABarara (2)  01:27 01:39+5601:28 01:41+571 2m231736.740279mNRBarara, Haryana
71UMBAmbala Cantt. Junction (7)X  02:05 02:18+4702:15 02:25+5010 7m231761.541278mNRAmbala 133001, Haryana
72UBCAmbala City (3)X  02:29 02:36+5302:30 02:38+531 2m331769.182273mNRNH-1, Haryana
73RPJRajpura Junction (3)X  02:47 02:53+5402:48 02:55+551 2m131789.551272mNRNH-1, Punjab
74SIRSirhind Junction (3)XO  03:26 03:24+4303:28 03:26+442m131814.453271mNRSirhind, Punjab
75GVGMandi Gobindgarh (2)O  03:38 03:37+4203:39+421 2m131824.244268mNRMandi Gobindgarh, Punjab
76KNNKhanna (3)X  03:51 03:50+3303:52+341 2m131832.368269mNRNH 1, Punjab
77LDHLudhiana Junction (7)X  04:30+1:0104:40+1:2210m231875.134246mNRLudhiana 141001, Punjab
78PHRPhillaur Junction (3)X  05:04 05:03+1:2005:05+1:201 2m231888.275246mNRPhillaur, Punjab
79PGWPhagwara Junction (3)X  05:24 05:23+1:2005:25+1:211 2m231910.854245mNRPhagwara, Punjab
80JRCJalandhar Cantt. Junction (3)  05:43+1:1905:45+1:192m131927.129239mNRNear Rama Mandi, Punjab
81JUCJalandhar City Junction (5)X  05:55+1:1906:00+1:225m131931.949239mNRJalandhar 144001, Punjab
82KREKartarpur (2)X  06:19 06:18+1:1906:20+1:191 2m231946.649236mNRKartarpur, Punjab
83BEASBeas Junction (2)  06:47 06:46+1:1306:48+1:131 2m131968.080238mNRBeas, Punjab
84JNLJandiala (2)X  07:07 07:06+1:1407:08+1:141 2m131991.819238mNRJandiala, Punjab
85ASRAmritsar Junction (5)•  08:10+33-332011.0-233mNRAmritsar 143002, Punjab
Scroll to Top
Scroll to Bottom